createdAt,value
2018-09-17T00:00:28.285Z,7.00
2018-09-17T00:02:55.790Z,6.60
2018-09-17T00:05:23.233Z,7.67
2018-09-17T00:07:50.708Z,6.67
2018-09-17T00:10:18.152Z,8.20
2018-09-17T00:12:45.623Z,7.40
2018-09-17T00:15:13.082Z,5.50
2018-09-17T00:17:40.569Z,7.53
2018-09-17T00:20:08.018Z,8.60
2018-09-17T00:22:35.501Z,8.40
2018-09-17T00:25:02.956Z,7.30
2018-09-17T00:27:30.422Z,7.80
2018-09-17T00:29:57.952Z,7.93
2018-09-17T00:32:25.410Z,5.73
2018-09-17T00:34:52.889Z,7.40
2018-09-17T00:37:20.330Z,6.03
2018-09-17T00:39:47.878Z,7.23
2018-09-17T00:42:15.338Z,6.10
2018-09-17T00:44:42.721Z,7.30
2018-09-17T00:47:10.129Z,7.80
2018-09-17T00:49:37.618Z,6.60
2018-09-17T00:52:05.073Z,6.33
2018-09-17T00:54:32.553Z,7.43
2018-09-17T00:56:59.990Z,5.57
2018-09-17T00:59:28.154Z,7.20
2018-09-17T01:01:55.698Z,6.07
2018-09-17T01:04:23.124Z,5.83
2018-09-17T01:06:51.754Z,7.23
2018-09-17T01:09:24.946Z,7.40
2018-09-17T01:11:52.379Z,5.97
2018-09-17T01:14:20.697Z,6.33
2018-09-17T01:16:48.132Z,6.83
2018-09-17T01:19:15.616Z,6.90
2018-09-17T01:21:43.059Z,7.43
2018-09-17T01:24:10.495Z,6.97
2018-09-17T01:26:37.968Z,5.90
2018-09-17T01:29:05.448Z,7.17
2018-09-17T01:31:32.866Z,7.17
2018-09-17T01:34:00.440Z,7.37
2018-09-17T01:36:27.814Z,7.30
2018-09-17T01:38:55.343Z,5.70
2018-09-17T01:41:22.765Z,6.90
2018-09-17T01:43:50.213Z,6.80
2018-09-17T01:46:17.903Z,5.83
2018-09-17T01:48:45.418Z,6.57
2018-09-17T01:51:12.949Z,6.13
2018-09-17T01:53:40.514Z,6.67
2018-09-17T01:56:07.967Z,6.90
2018-09-17T01:58:35.425Z,5.63
2018-09-17T02:01:02.883Z,6.43
2018-09-17T02:03:30.416Z,6.10
2018-09-17T02:05:57.932Z,6.37
2018-09-17T02:08:25.485Z,6.37
2018-09-17T02:10:53.011Z,6.87
2018-09-17T02:13:20.621Z,6.63
2018-09-17T02:15:48.058Z,6.53
2018-09-17T02:18:15.525Z,6.17
2018-09-17T02:20:42.973Z,6.77
2018-09-17T02:23:10.437Z,5.63
2018-09-17T02:25:37.962Z,6.53
2018-09-17T02:28:05.457Z,7.47
2018-09-17T02:30:32.937Z,7.17
2018-09-17T02:33:00.401Z,7.20
2018-09-17T02:35:27.909Z,7.63
2018-09-17T02:37:55.374Z,7.37
2018-09-17T02:40:22.929Z,6.90
2018-09-17T02:42:50.744Z,7.30
2018-09-17T02:45:19.130Z,6.10
2018-09-17T02:47:47.098Z,7.23
2018-09-17T02:50:14.517Z,6.40
2018-09-17T02:52:41.993Z,6.83
2018-09-17T02:55:09.485Z,7.27
2018-09-17T02:57:37.434Z,7.60
2018-09-17T03:00:05.664Z,5.47
2018-09-17T03:02:33.162Z,7.43
2018-09-17T03:05:00.534Z,8.33
2018-09-17T03:07:28.048Z,6.60
2018-09-17T03:09:55.629Z,8.67
2018-09-17T03:12:23.022Z,7.00
2018-09-17T03:14:50.514Z,9.53
2018-09-17T03:17:18.493Z,6.90
2018-09-17T03:19:46.049Z,8.80
2018-09-17T03:22:14.074Z,8.53
2018-09-17T03:24:41.617Z,7.73
2018-09-17T03:27:09.261Z,8.37
2018-09-17T03:29:36.698Z,9.23
2018-09-17T03:32:04.272Z,7.23
2018-09-17T03:34:31.662Z,9.07
2018-09-17T03:36:59.193Z,8.93
2018-09-17T03:39:26.726Z,6.80
2018-09-17T03:41:54.164Z,9.03
2018-09-17T03:44:22.106Z,6.80
2018-09-17T03:46:49.524Z,8.20
2018-09-17T03:49:16.984Z,8.87
2018-09-17T03:51:44.417Z,9.23
2018-09-17T03:54:12.578Z,6.97
2018-09-17T03:56:40.036Z,8.97
2018-09-17T03:59:07.522Z,7.57
2018-09-17T04:01:35.499Z,8.30
2018-09-17T04:04:02.863Z,6.80
2018-09-17T04:06:30.278Z,8.83
2018-09-17T04:08:57.701Z,7.53
2018-09-17T04:11:25.158Z,8.73
2018-09-17T04:13:52.618Z,6.87
2018-09-17T04:16:20.036Z,8.93
2018-09-17T04:18:47.485Z,8.27
2018-09-17T04:21:15.053Z,8.90
2018-09-17T04:23:42.493Z,9.17
2018-09-17T04:26:11.021Z,6.93
2018-09-17T04:28:38.647Z,9.03
2018-09-17T04:31:06.257Z,9.10
2018-09-17T04:33:39.252Z,6.87
2018-09-17T04:36:07.025Z,9.83
2018-09-17T04:38:34.513Z,7.67
2018-09-17T04:41:02.283Z,8.33
2018-09-17T04:43:29.812Z,8.73
2018-09-17T04:45:58.035Z,9.27
2018-09-17T04:48:25.483Z,7.30
2018-09-17T04:50:53.018Z,10.40
2018-09-17T04:53:20.596Z,7.87
2018-09-17T04:55:48.803Z,7.43
2018-09-17T04:58:16.296Z,9.83
2018-09-17T05:00:43.741Z,9.60
2018-09-17T05:03:11.185Z,9.10
2018-09-17T05:05:38.587Z,7.63
2018-09-17T05:08:06.162Z,9.80
2018-09-17T05:10:34.063Z,7.50
2018-09-17T05:13:01.548Z,10.40
2018-09-17T05:15:28.908Z,8.30
2018-09-17T05:17:56.359Z,10.67
2018-09-17T05:20:23.825Z,7.37
2018-09-17T05:22:51.299Z,9.23
2018-09-17T05:25:18.688Z,11.43
2018-09-17T05:27:46.177Z,8.20
2018-09-17T05:30:13.689Z,10.70
2018-09-17T05:32:41.121Z,10.37
2018-09-17T05:35:08.694Z,10.23
2018-09-17T05:37:36.118Z,8.70
2018-09-17T05:40:03.585Z,11.30
2018-09-17T05:42:31.536Z,9.07
2018-09-17T05:44:59.025Z,11.87
2018-09-17T05:47:27.114Z,10.67
2018-09-17T05:49:54.628Z,8.70
2018-09-17T05:52:22.077Z,11.83
2018-09-17T05:54:49.536Z,9.33
2018-09-17T05:57:17.005Z,11.37
2018-09-17T05:59:44.682Z,11.77
2018-09-17T06:02:12.089Z,12.23
2018-09-17T06:04:39.534Z,12.43
2018-09-17T06:07:07.116Z,12.20
2018-09-17T06:09:34.544Z,11.63
2018-09-17T06:12:02.030Z,12.13
2018-09-17T06:14:29.552Z,10.83
2018-09-17T06:16:57.131Z,10.87
2018-09-17T06:19:24.880Z,11.63
2018-09-17T06:21:52.309Z,11.30
2018-09-17T06:24:20.697Z,13.37
2018-09-17T06:26:48.968Z,12.13
2018-09-17T06:29:16.671Z,11.67
2018-09-17T06:31:44.204Z,14.07
2018-09-17T06:34:11.627Z,12.87
2018-09-17T06:36:39.121Z,13.40
2018-09-17T06:39:07.908Z,12.77
2018-09-17T06:41:35.387Z,12.93
2018-09-17T06:44:03.041Z,10.17
2018-09-17T06:46:30.529Z,14.13
2018-09-17T06:48:58.749Z,13.50
2018-09-17T06:51:26.259Z,10.80
2018-09-17T06:53:53.842Z,15.80
2018-09-17T06:56:21.447Z,14.47
2018-09-17T06:58:49.188Z,16.47
2018-09-17T07:01:16.894Z,16.57
2018-09-17T07:03:44.430Z,16.03
2018-09-17T07:06:11.909Z,17.13
2018-09-17T07:08:39.355Z,16.47
2018-09-17T07:11:08.245Z,16.80
2018-09-17T07:13:35.783Z,13.47
2018-09-17T07:16:03.313Z,13.20
2018-09-17T07:18:30.783Z,14.37
2018-09-17T07:20:58.282Z,12.50
2018-09-17T07:23:25.807Z,11.87
2018-09-17T07:25:53.449Z,12.40
2018-09-17T07:28:20.928Z,10.80
2018-09-17T07:30:48.684Z,11.23
2018-09-17T07:33:16.178Z,10.37
2018-09-17T07:35:43.750Z,10.67
2018-09-17T07:38:11.266Z,11.07
2018-09-17T07:40:39.143Z,11.13
2018-09-17T07:43:06.595Z,9.23
2018-09-17T07:45:34.167Z,8.83
2018-09-17T07:48:01.586Z,9.07
2018-09-17T07:50:28.999Z,9.00
2018-09-17T07:52:56.558Z,8.90
2018-09-17T07:55:24.131Z,8.03
2018-09-17T07:57:52.190Z,8.70
2018-09-17T08:00:19.802Z,8.90
2018-09-17T08:02:49.084Z,8.20
2018-09-17T08:05:16.606Z,8.47
2018-09-17T08:07:44.189Z,8.47
2018-09-17T08:10:16.333Z,8.67
2018-09-17T08:12:43.752Z,8.53
2018-09-17T08:15:11.234Z,8.80
2018-09-17T08:17:38.789Z,7.97
2018-09-17T08:20:06.433Z,8.57
2018-09-17T08:22:33.959Z,7.90
2018-09-17T08:25:01.384Z,8.60
2018-09-17T08:27:28.858Z,8.03
2018-09-17T08:29:56.482Z,8.53
2018-09-17T08:32:23.926Z,8.90
2018-09-17T08:34:51.456Z,8.60
2018-09-17T08:37:18.972Z,8.03
2018-09-17T08:39:46.567Z,8.67
2018-09-17T08:42:15.371Z,8.73
2018-09-17T08:44:43.001Z,8.40
2018-09-17T08:47:10.515Z,8.57
2018-09-17T08:49:38.858Z,9.10
2018-09-17T08:52:06.340Z,8.87
2018-09-17T08:54:38.478Z,8.80
2018-09-17T08:57:11.720Z,8.70
2018-09-17T08:59:44.853Z,9.17
2018-09-17T09:02:15.568Z,8.70
2018-09-17T09:04:48.603Z,9.37
2018-09-17T09:07:21.580Z,9.77
2018-09-17T09:09:51.225Z,8.97
2018-09-17T09:12:24.841Z,8.83
2018-09-17T09:14:55.136Z,9.93
2018-09-17T09:17:22.709Z,9.50
2018-09-17T09:19:50.141Z,9.93
2018-09-17T09:22:17.631Z,9.63
2018-09-17T09:24:45.168Z,9.07
2018-09-17T09:27:12.638Z,9.67
2018-09-17T09:29:40.567Z,9.43
2018-09-17T09:32:08.006Z,9.07
2018-09-17T09:34:35.498Z,9.63
2018-09-17T09:37:03.041Z,9.37
2018-09-17T09:39:30.541Z,9.57
2018-09-17T09:41:57.984Z,9.57
2018-09-17T09:44:25.466Z,9.47
2018-09-17T09:46:53.491Z,9.90
2018-09-17T09:49:21.060Z,9.40
2018-09-17T09:51:48.521Z,9.03
2018-09-17T09:54:15.936Z,9.77
2018-09-17T09:56:43.419Z,9.67
2018-09-17T09:59:11.164Z,8.90
2018-09-17T10:01:44.264Z,9.47
2018-09-17T10:04:17.193Z,8.77
2018-09-17T10:06:44.677Z,9.60
2018-09-17T10:09:17.661Z,8.90
2018-09-17T10:11:51.264Z,9.40
2018-09-17T10:14:24.113Z,8.60
2018-09-17T10:16:57.063Z,8.53
2018-09-17T10:19:25.248Z,9.83
2018-09-17T10:21:52.688Z,9.03
2018-09-17T10:24:20.157Z,9.10
2018-09-17T10:26:47.838Z,8.33
2018-09-17T10:29:16.086Z,9.83
2018-09-17T10:31:43.873Z,9.47
2018-09-17T10:34:11.420Z,9.53
2018-09-17T10:36:38.855Z,9.67
2018-09-17T10:39:08.763Z,8.83
2018-09-17T10:41:36.366Z,6.97
2018-09-17T10:44:04.030Z,5.20
2018-09-17T10:46:31.618Z,4.97
2018-09-17T10:48:59.027Z,4.40
2018-09-17T10:51:27.248Z,4.33
2018-09-17T10:53:55.012Z,4.40
2018-09-17T10:56:22.569Z,4.43
2018-09-17T10:58:49.959Z,4.70
2018-09-17T11:01:17.484Z,4.37
2018-09-17T11:03:44.978Z,4.27
2018-09-17T11:06:12.762Z,4.47
2018-09-17T11:08:40.253Z,5.03
2018-09-17T11:11:08.490Z,4.17
2018-09-17T11:13:35.954Z,4.30
2018-09-17T11:16:03.970Z,4.80
2018-09-17T11:18:31.784Z,4.27
2018-09-17T11:20:59.211Z,5.17
2018-09-17T11:23:26.673Z,4.10
2018-09-17T11:25:54.109Z,3.97
2018-09-17T11:28:21.590Z,4.30
2018-09-17T11:30:49.066Z,4.50
2018-09-17T11:33:16.497Z,4.37
2018-09-17T11:35:44.091Z,4.37
2018-09-17T11:38:11.815Z,4.63
2018-09-17T11:40:39.239Z,3.97
2018-09-17T11:43:06.793Z,3.50
2018-09-17T11:45:34.247Z,3.90
2018-09-17T11:48:01.714Z,3.57
2018-09-17T11:50:29.645Z,3.23
2018-09-17T11:52:58.006Z,2.90
2018-09-17T11:55:25.426Z,2.97
2018-09-17T11:57:53.105Z,3.37
2018-09-17T12:00:25.962Z,3.43
2018-09-17T12:02:59.026Z,3.50
2018-09-17T12:05:32.113Z,3.70
2018-09-17T12:07:59.679Z,3.77
2018-09-17T12:10:27.815Z,3.50
2018-09-17T12:12:55.244Z,3.33
2018-09-17T12:15:22.767Z,3.33
2018-09-17T12:17:50.226Z,3.53
2018-09-17T12:20:17.731Z,3.50
2018-09-17T12:22:45.298Z,3.40
2018-09-17T12:25:13.474Z,3.40
2018-09-17T12:27:41.873Z,2.90
2018-09-17T12:30:09.335Z,2.77
2018-09-17T12:32:36.802Z,3.13
2018-09-17T12:35:04.323Z,2.83
2018-09-17T12:37:31.856Z,3.27
2018-09-17T12:39:59.397Z,2.83
2018-09-17T12:42:26.916Z,2.63
2018-09-17T12:44:54.354Z,2.47
2018-09-17T12:47:21.769Z,2.63
2018-09-17T12:49:49.187Z,2.67
